createdAt,value
2017-11-04T00:00:18.011Z,0.00
2017-11-04T00:01:18.430Z,0.00
2017-11-04T00:02:18.860Z,0.00
2017-11-04T00:03:19.277Z,0.00
2017-11-04T00:04:19.710Z,0.00
2017-11-04T00:05:20.124Z,0.00
2017-11-04T00:06:20.552Z,0.00
2017-11-04T00:07:20.973Z,0.00
2017-11-04T00:08:21.405Z,0.00
2017-11-04T00:09:21.820Z,0.00
2017-11-04T00:10:22.250Z,0.00
2017-11-04T00:11:22.672Z,0.00
2017-11-04T00:12:23.091Z,0.00
2017-11-04T00:13:23.523Z,0.00
2017-11-04T00:14:23.939Z,0.00
2017-11-04T00:15:24.366Z,0.00
2017-11-04T00:16:24.790Z,0.00
2017-11-04T00:17:25.221Z,0.00
2017-11-04T00:18:25.641Z,0.00
2017-11-04T00:19:26.063Z,0.00
2017-11-04T00:20:26.486Z,0.00
2017-11-04T00:21:26.916Z,0.00
2017-11-04T00:22:27.337Z,0.00
2017-11-04T00:23:27.758Z,0.00
2017-11-04T00:24:28.212Z,0.00
2017-11-04T00:25:28.609Z,0.00
2017-11-04T00:26:29.028Z,0.00
2017-11-04T00:27:29.455Z,0.00
2017-11-04T00:28:29.882Z,0.00
2017-11-04T00:29:30.301Z,0.00
2017-11-04T00:30:30.730Z,0.00
2017-11-04T00:31:31.149Z,0.00
2017-11-04T00:32:31.569Z,0.00
2017-11-04T00:33:31.999Z,0.00
2017-11-04T00:34:32.422Z,0.00
2017-11-04T00:35:32.846Z,0.00
2017-11-04T00:36:33.270Z,0.00
2017-11-04T00:37:33.693Z,0.00
2017-11-04T00:38:34.118Z,0.00
2017-11-04T00:39:34.542Z,0.00
2017-11-04T00:40:34.965Z,0.00
2017-11-04T00:41:35.387Z,0.00
2017-11-04T00:42:35.842Z,0.00
2017-11-04T00:43:36.236Z,0.00
2017-11-04T00:44:36.661Z,0.00
2017-11-04T00:45:37.079Z,0.00
2017-11-04T00:46:37.505Z,0.00
2017-11-04T00:47:37.933Z,0.00
2017-11-04T00:48:38.355Z,0.00
2017-11-04T00:49:38.775Z,0.00
2017-11-04T00:50:39.202Z,0.00
2017-11-04T00:51:39.627Z,0.00
2017-11-04T00:52:40.054Z,0.00
2017-11-04T00:53:40.472Z,0.00
2017-11-04T00:54:40.895Z,0.00
2017-11-04T00:55:41.320Z,0.00
2017-11-04T00:56:41.748Z,0.00
2017-11-04T00:57:42.174Z,0.00
2017-11-04T00:58:42.587Z,0.00
2017-11-04T00:59:43.014Z,0.00
2017-11-04T01:00:43.455Z,0.00
2017-11-04T01:01:43.872Z,0.00
2017-11-04T01:02:44.289Z,0.00
2017-11-04T01:03:44.714Z,0.00
2017-11-04T01:04:45.131Z,0.00
2017-11-04T01:05:45.560Z,0.00
2017-11-04T01:06:45.980Z,0.00
2017-11-04T01:07:46.409Z,0.00
2017-11-04T01:08:46.829Z,0.00
2017-11-04T01:09:47.252Z,0.00
2017-11-04T01:10:47.683Z,0.00
2017-11-04T01:11:48.102Z,0.00
2017-11-04T01:12:48.520Z,0.00
2017-11-04T01:13:48.945Z,0.00
2017-11-04T01:14:49.369Z,0.00
2017-11-04T01:15:49.792Z,0.00
2017-11-04T01:16:50.217Z,0.00
2017-11-04T01:17:50.638Z,0.00
2017-11-04T01:18:51.063Z,0.00
2017-11-04T01:19:51.488Z,0.00
2017-11-04T01:20:51.911Z,0.00
2017-11-04T01:21:52.337Z,0.00
2017-11-04T01:22:52.756Z,0.00
2017-11-04T01:23:53.193Z,0.00
2017-11-04T01:24:53.605Z,0.00
2017-11-04T01:25:54.025Z,0.00
2017-11-04T01:26:54.451Z,0.00
2017-11-04T01:27:54.879Z,0.00
2017-11-04T01:28:55.299Z,0.00
2017-11-04T01:29:55.721Z,0.00
2017-11-04T01:30:56.147Z,0.00
2017-11-04T01:31:56.573Z,0.00
2017-11-04T01:32:56.995Z,0.00
2017-11-04T01:33:57.418Z,0.00
2017-11-04T01:34:58.413Z,0.00
2017-11-04T01:35:58.255Z,0.00
2017-11-04T01:36:58.688Z,0.00
2017-11-04T01:37:59.113Z,0.00
2017-11-04T01:38:59.536Z,0.00
2017-11-04T01:39:59.964Z,0.00
2017-11-04T01:41:00.377Z,0.00
2017-11-04T01:42:00.803Z,0.00
2017-11-04T01:43:01.227Z,0.00
2017-11-04T01:44:01.653Z,0.00
2017-11-04T01:45:02.079Z,0.00
2017-11-04T01:46:02.503Z,0.00
2017-11-04T01:47:02.924Z,0.00
2017-11-04T01:48:03.342Z,0.00
2017-11-04T01:49:03.771Z,0.00
2017-11-04T01:50:04.198Z,0.00
2017-11-04T01:51:04.630Z,0.00
2017-11-04T01:52:05.060Z,0.00
2017-11-04T01:53:05.466Z,0.00
2017-11-04T01:54:08.478Z,0.00
2017-11-04T01:55:06.311Z,0.00
2017-11-04T01:56:06.733Z,0.00
2017-11-04T01:57:07.154Z,0.00
2017-11-04T01:58:07.576Z,0.00
2017-11-04T01:59:08.001Z,0.00
2017-11-04T02:00:08.423Z,0.00
2017-11-04T02:01:08.854Z,0.00
2017-11-04T02:02:09.273Z,0.00
2017-11-04T02:03:09.693Z,0.00
2017-11-04T02:04:10.120Z,0.00
2017-11-04T02:05:10.542Z,0.00
2017-11-04T02:06:10.972Z,0.00
2017-11-04T02:07:11.386Z,0.00
2017-11-04T02:08:11.818Z,0.00
2017-11-04T02:09:12.236Z,0.00
2017-11-04T02:10:12.659Z,0.00
2017-11-04T02:11:13.081Z,0.00
2017-11-04T02:12:13.503Z,0.00
2017-11-04T02:13:13.935Z,0.00
2017-11-04T02:14:14.351Z,0.00
2017-11-04T02:15:14.777Z,0.00
2017-11-04T02:16:15.200Z,0.00
2017-11-04T02:17:15.632Z,0.00
2017-11-04T02:18:16.048Z,0.00
2017-11-04T02:19:16.466Z,0.00
2017-11-04T02:20:16.890Z,0.00
2017-11-04T02:21:17.312Z,0.00
2017-11-04T02:22:17.733Z,0.00
2017-11-04T02:23:18.177Z,0.00
2017-11-04T02:24:18.591Z,0.00
2017-11-04T02:25:19.008Z,0.00
2017-11-04T02:26:19.427Z,0.00
2017-11-04T02:27:19.849Z,0.00
2017-11-04T02:28:20.288Z,0.00
2017-11-04T02:29:20.701Z,0.00
2017-11-04T02:30:21.126Z,0.00
2017-11-04T02:31:21.542Z,0.00
2017-11-04T02:32:21.968Z,0.00
2017-11-04T02:33:22.393Z,0.00
2017-11-04T02:34:22.812Z,0.00
2017-11-04T02:35:23.234Z,0.00
2017-11-04T02:36:23.657Z,0.00
2017-11-04T02:37:24.080Z,0.00
2017-11-04T02:38:24.505Z,0.00
2017-11-04T02:39:24.930Z,0.00
2017-11-04T02:40:25.353Z,0.00
2017-11-04T02:41:25.800Z,0.00
2017-11-04T02:42:26.197Z,0.00
2017-11-04T02:43:26.622Z,0.00
2017-11-04T02:44:27.045Z,0.00
2017-11-04T02:45:27.468Z,0.00
2017-11-04T02:46:27.890Z,0.00
2017-11-04T02:47:28.309Z,0.00
2017-11-04T02:48:28.732Z,0.00
2017-11-04T02:49:29.166Z,0.00
2017-11-04T02:50:29.583Z,0.00
2017-11-04T02:51:30.003Z,0.00
2017-11-04T02:52:30.428Z,0.00
2017-11-04T02:53:30.860Z,0.00
2017-11-04T02:54:31.274Z,0.00
2017-11-04T02:55:31.701Z,0.00
2017-11-04T02:56:32.122Z,0.00
2017-11-04T02:57:32.545Z,0.00
2017-11-04T02:58:32.974Z,0.00
2017-11-04T02:59:33.395Z,0.00
2017-11-04T03:00:33.816Z,0.00
2017-11-04T03:01:34.231Z,0.00
2017-11-04T03:02:34.660Z,0.00
2017-11-04T03:03:35.080Z,0.00
2017-11-04T03:04:35.503Z,0.00
2017-11-04T03:05:35.925Z,0.00
2017-11-04T03:06:36.349Z,0.00
2017-11-04T03:07:36.767Z,0.00
2017-11-04T03:08:37.193Z,0.00
2017-11-04T03:09:37.621Z,0.00
2017-11-04T03:10:38.045Z,0.00
2017-11-04T03:11:38.470Z,0.00
2017-11-04T03:12:38.888Z,0.00
2017-11-04T03:13:39.318Z,0.00
2017-11-04T03:14:39.739Z,0.00
2017-11-04T03:15:40.158Z,0.00
2017-11-04T03:16:40.585Z,0.00
2017-11-04T03:17:41.002Z,0.00
2017-11-04T03:18:41.424Z,0.00
2017-11-04T03:19:41.855Z,0.00
2017-11-04T03:20:42.272Z,0.00
2017-11-04T03:21:42.701Z,0.00
2017-11-04T03:22:43.118Z,0.00
2017-11-04T03:23:43.537Z,0.00
2017-11-04T03:24:43.964Z,0.00
2017-11-04T03:25:44.387Z,0.00
2017-11-04T03:26:44.807Z,0.00
2017-11-04T03:27:45.236Z,0.00
2017-11-04T03:28:45.657Z,0.00
2017-11-04T03:29:46.081Z,0.00
2017-11-04T03:30:46.505Z,0.00
2017-11-04T03:31:46.922Z,0.00
2017-11-04T03:32:47.352Z,0.00
2017-11-04T03:33:47.771Z,0.00
2017-11-04T03:34:48.194Z,0.00
2017-11-04T03:35:48.617Z,0.00
2017-11-04T03:36:49.041Z,0.00
2017-11-04T03:37:49.459Z,0.00
2017-11-04T03:38:49.888Z,0.00
2017-11-04T03:39:50.311Z,0.00
2017-11-04T03:40:50.728Z,0.00
2017-11-04T03:41:51.153Z,0.00
2017-11-04T03:42:51.573Z,0.00
2017-11-04T03:43:51.997Z,0.00
2017-11-04T03:44:52.425Z,0.00
2017-11-04T03:45:52.843Z,0.00
2017-11-04T03:46:53.267Z,0.00
2017-11-04T03:47:53.691Z,0.00
2017-11-04T03:48:54.111Z,0.00
2017-11-04T03:49:54.544Z,0.00
2017-11-04T03:50:54.958Z,0.00
2017-11-04T03:51:55.383Z,0.00
2017-11-04T03:52:55.808Z,0.00
2017-11-04T03:53:56.225Z,0.00
2017-11-04T03:54:56.649Z,0.00
2017-11-04T03:55:57.071Z,0.00
2017-11-04T03:56:57.492Z,0.00
2017-11-04T03:57:57.915Z,0.00
2017-11-04T03:58:58.340Z,0.00
2017-11-04T03:59:58.760Z,0.00
2017-11-04T04:00:59.188Z,0.00
2017-11-04T04:01:59.605Z,0.00
2017-11-04T04:03:00.037Z,0.00
2017-11-04T04:04:00.450Z,0.00
2017-11-04T04:05:00.880Z,0.00
2017-11-04T04:06:01.941Z,0.00
2017-11-04T04:07:01.710Z,0.00
2017-11-04T04:08:02.145Z,0.00
2017-11-04T04:09:02.575Z,0.00
2017-11-04T04:10:02.999Z,0.00
2017-11-04T04:11:03.420Z,0.00
2017-11-04T04:12:03.837Z,0.00
2017-11-04T04:13:04.277Z,0.00
2017-11-04T04:14:04.687Z,0.00
2017-11-04T04:15:05.103Z,0.00
2017-11-04T04:16:05.538Z,0.00
2017-11-04T04:17:05.954Z,0.00
2017-11-04T04:18:06.379Z,0.00
2017-11-04T04:19:06.797Z,0.00
2017-11-04T04:20:07.220Z,0.00
2017-11-04T04:21:07.643Z,0.00
2017-11-04T04:22:08.071Z,0.00
2017-11-04T04:23:08.487Z,0.00
2017-11-04T04:24:08.921Z,0.00
2017-11-04T04:25:09.338Z,0.00
2017-11-04T04:26:09.767Z,0.00
2017-11-04T04:27:10.182Z,0.00
2017-11-04T04:28:10.606Z,0.00
2017-11-04T04:29:11.029Z,0.00
2017-11-04T04:30:11.453Z,0.00
2017-11-04T04:31:11.879Z,0.00
2017-11-04T04:32:12.298Z,0.00
2017-11-04T04:33:12.733Z,0.00
2017-11-04T04:34:13.145Z,0.00
2017-11-04T04:35:13.569Z,0.00
2017-11-04T04:36:13.995Z,0.00
2017-11-04T04:37:14.419Z,0.00
2017-11-04T04:38:14.837Z,0.00
2017-11-04T04:39:15.267Z,0.00
2017-11-04T04:40:15.686Z,0.00
2017-11-04T04:41:16.110Z,0.00
2017-11-04T04:42:16.537Z,0.00
2017-11-04T04:43:16.954Z,0.00
2017-11-04T04:44:17.384Z,0.00
2017-11-04T04:45:17.807Z,0.00
2017-11-04T04:46:18.234Z,0.00
2017-11-04T04:47:18.651Z,0.00
2017-11-04T04:48:19.071Z,0.00
2017-11-04T04:49:19.498Z,0.00
2017-11-04T04:50:19.921Z,0.00
2017-11-04T04:51:20.350Z,0.00
2017-11-04T04:52:20.766Z,0.00
2017-11-04T04:53:21.189Z,0.00
2017-11-04T04:54:21.615Z,0.00
2017-11-04T04:55:22.041Z,0.00
2017-11-04T04:56:22.458Z,0.00
2017-11-04T04:57:22.882Z,0.00
2017-11-04T04:58:23.308Z,0.00
2017-11-04T04:59:23.726Z,0.00
2017-11-04T05:00:24.155Z,0.00
2017-11-04T05:01:24.580Z,0.00
2017-11-04T05:02:24.999Z,0.00
2017-11-04T05:03:25.422Z,0.00
2017-11-04T05:04:25.849Z,0.00
2017-11-04T05:05:26.268Z,0.00
2017-11-04T05:06:26.694Z,0.00
2017-11-04T05:07:27.111Z,0.00
2017-11-04T05:08:27.553Z,0.00
2017-11-04T05:09:27.968Z,0.00
2017-11-04T05:10:28.386Z,0.00
2017-11-04T05:11:28.806Z,0.00
2017-11-04T05:12:29.230Z,0.00
2017-11-04T05:13:29.656Z,0.00
2017-11-04T05:14:30.077Z,0.00
2017-11-04T05:15:30.505Z,0.00
2017-11-04T05:16:30.929Z,0.00
2017-11-04T05:17:31.348Z,0.00
2017-11-04T05:18:31.769Z,0.00
2017-11-04T05:19:32.196Z,0.00
2017-11-04T05:20:32.619Z,0.00
2017-11-04T05:21:33.037Z,0.00
2017-11-04T05:22:33.459Z,0.00
2017-11-04T05:23:33.888Z,0.00
2017-11-04T05:24:34.305Z,0.00
2017-11-04T05:25:34.734Z,0.00
2017-11-04T05:26:35.162Z,0.00
2017-11-04T05:27:35.600Z,0.00
2017-11-04T05:28:35.997Z,0.00
2017-11-04T05:29:36.424Z,0.00
2017-11-04T05:30:36.846Z,0.00
2017-11-04T05:31:37.275Z,0.00
2017-11-04T05:32:37.694Z,0.00
2017-11-04T05:33:38.120Z,0.00
2017-11-04T05:34:38.540Z,0.00
2017-11-04T05:35:38.958Z,0.00
2017-11-04T05:36:39.388Z,0.00
2017-11-04T05:37:39.807Z,0.00
2017-11-04T05:38:40.231Z,0.00
2017-11-04T05:39:40.652Z,0.00
2017-11-04T05:40:41.075Z,0.00
2017-11-04T05:41:41.498Z,0.00
2017-11-04T05:42:41.923Z,0.00
2017-11-04T05:43:42.352Z,0.00
2017-11-04T05:44:42.770Z,0.00
2017-11-04T05:45:43.195Z,0.00
2017-11-04T05:46:43.618Z,0.00
2017-11-04T05:47:44.036Z,0.00
2017-11-04T05:48:44.468Z,0.00
2017-11-04T05:49:44.883Z,0.00
2017-11-04T05:50:45.308Z,0.00
2017-11-04T05:51:45.730Z,0.00
2017-11-04T05:52:46.152Z,0.00
2017-11-04T05:53:46.576Z,0.00
2017-11-04T05:54:47.004Z,0.00
2017-11-04T05:55:47.424Z,0.00
2017-11-04T05:56:47.840Z,0.00
2017-11-04T05:57:48.269Z,0.00
2017-11-04T05:58:48.687Z,0.00
2017-11-04T05:59:49.110Z,0.00
2017-11-04T06:00:49.532Z,0.00
2017-11-04T06:01:49.955Z,0.00
2017-11-04T06:02:50.382Z,0.00
2017-11-04T06:03:50.801Z,0.00
2017-11-04T06:04:51.224Z,0.00
2017-11-04T06:05:51.647Z,0.00
2017-11-04T06:06:52.073Z,5.63
2017-11-04T06:07:52.496Z,5.63
2017-11-04T06:08:52.914Z,5.63
2017-11-04T06:09:53.339Z,5.63
2017-11-04T06:10:53.761Z,5.63
2017-11-04T06:11:54.184Z,5.63
2017-11-04T06:12:54.606Z,5.63
2017-11-04T06:13:55.029Z,5.63
2017-11-04T06:14:55.449Z,5.63
2017-11-04T06:15:55.874Z,5.63
2017-11-04T06:16:56.297Z,11.25
2017-11-04T06:17:56.717Z,11.25
2017-11-04T06:18:57.144Z,11.25
2017-11-04T06:19:57.563Z,11.25
2017-11-04T06:20:57.988Z,11.25
2017-11-04T06:21:58.409Z,11.25
2017-11-04T06:22:58.838Z,16.88
2017-11-04T06:23:59.257Z,16.88
2017-11-04T06:24:59.677Z,16.88
2017-11-04T06:26:00.105Z,16.88
2017-11-04T06:27:00.529Z,16.88
2017-11-04T06:28:00.952Z,16.88
2017-11-04T06:29:01.367Z,22.50
2017-11-04T06:30:01.793Z,22.50
2017-11-04T06:31:02.214Z,22.50
2017-11-04T06:32:02.641Z,28.13
2017-11-04T06:33:03.059Z,28.13
2017-11-04T06:34:03.485Z,28.13
2017-11-04T06:35:03.908Z,33.75
2017-11-04T06:36:04.328Z,33.75
2017-11-04T06:37:04.753Z,33.75
2017-11-04T06:38:05.177Z,33.75
2017-11-04T06:39:05.600Z,33.75
2017-11-04T06:40:06.020Z,33.75
2017-11-04T06:41:06.442Z,39.38
2017-11-04T06:42:06.867Z,39.38
2017-11-04T06:43:07.296Z,39.38
2017-11-04T06:44:07.716Z,39.38
2017-11-04T06:45:08.133Z,39.38
2017-11-04T06:46:08.559Z,39.38
2017-11-04T06:47:08.981Z,39.38
2017-11-04T06:48:09.410Z,45.00
2017-11-04T06:49:09.830Z,45.00
2017-11-04T06:50:10.248Z,45.00
2017-11-04T06:51:10.674Z,50.63
2017-11-04T06:52:11.094Z,50.63
2017-11-04T06:53:11.515Z,50.63
2017-11-04T06:54:11.945Z,56.25
2017-11-04T06:55:12.364Z,56.25
2017-11-04T06:56:12.793Z,56.25
2017-11-04T06:57:13.211Z,61.88
2017-11-04T06:58:13.644Z,61.88
2017-11-04T06:59:14.061Z,61.88
2017-11-04T07:00:14.478Z,67.50
2017-11-04T07:01:14.901Z,67.50
2017-11-04T07:02:15.324Z,67.50
2017-11-04T07:03:15.748Z,67.50
2017-11-04T07:04:16.181Z,73.13
2017-11-04T07:05:16.599Z,73.13
2017-11-04T07:06:17.016Z,73.13
2017-11-04T07:07:17.443Z,73.13
2017-11-04T07:08:17.877Z,73.13
2017-11-04T07:09:18.294Z,78.75
2017-11-04T07:10:18.720Z,78.75
2017-11-04T07:11:19.137Z,78.75
2017-11-04T07:12:19.556Z,84.38
2017-11-04T07:13:19.984Z,84.38
2017-11-04T07:14:20.406Z,90.00
2017-11-04T07:15:20.830Z,90.00
2017-11-04T07:16:21.248Z,90.00
2017-11-04T07:17:21.693Z,84.38
2017-11-04T07:18:22.104Z,84.38
2017-11-04T07:19:22.538Z,78.75
2017-11-04T07:20:22.947Z,78.75
2017-11-04T07:21:23.371Z,78.75
2017-11-04T07:22:23.807Z,78.75
2017-11-04T07:23:24.225Z,78.75
2017-11-04T07:24:24.640Z,78.75
2017-11-04T07:25:25.061Z,78.75
2017-11-04T07:26:25.488Z,78.75
2017-11-04T07:27:25.918Z,78.75
2017-11-04T07:28:26.337Z,78.75
2017-11-04T07:29:26.765Z,78.75
2017-11-04T07:30:27.189Z,84.38
2017-11-04T07:31:27.605Z,84.38
2017-11-04T07:32:28.031Z,84.38
2017-11-04T07:33:28.453Z,84.38
2017-11-04T07:34:28.880Z,84.38
2017-11-04T07:35:29.305Z,84.38
2017-11-04T07:36:29.725Z,84.38
2017-11-04T07:37:30.150Z,84.38
2017-11-04T07:38:30.568Z,84.38
2017-11-04T07:39:30.999Z,84.38
2017-11-04T07:40:31.416Z,84.38
2017-11-04T07:41:31.846Z,84.38
2017-11-04T07:42:32.265Z,84.38
2017-11-04T07:43:32.688Z,90.00
2017-11-04T07:44:33.110Z,95.63
2017-11-04T07:45:33.532Z,95.63
2017-11-04T07:46:33.961Z,101.25
2017-11-04T07:47:34.381Z,106.88
2017-11-04T07:48:34.805Z,112.50
2017-11-04T07:49:35.228Z,118.13
2017-11-04T07:50:35.656Z,118.13
2017-11-04T07:51:36.076Z,123.75
2017-11-04T07:52:36.497Z,123.75
2017-11-04T07:53:36.985Z,129.38
2017-11-04T07:54:37.348Z,135.00
2017-11-04T07:55:37.773Z,140.63
2017-11-04T07:56:38.190Z,151.88
2017-11-04T07:57:38.616Z,157.50
2017-11-04T07:58:39.043Z,168.75
2017-11-04T07:59:39.464Z,174.38
2017-11-04T08:00:39.908Z,180.00
2017-11-04T08:01:40.315Z,185.63
2017-11-04T08:02:40.735Z,191.25
2017-11-04T08:03:41.159Z,191.25
2017-11-04T08:04:41.583Z,191.25
2017-11-04T08:05:42.012Z,196.88
2017-11-04T08:06:42.436Z,191.25
2017-11-04T08:07:42.859Z,191.25
2017-11-04T08:08:43.278Z,180.00
2017-11-04T08:09:43.710Z,185.63
2017-11-04T08:10:44.129Z,185.63
2017-11-04T08:11:44.558Z,185.63
2017-11-04T08:12:44.976Z,191.25
2017-11-04T08:13:45.401Z,185.63
2017-11-04T08:14:45.828Z,191.25
2017-11-04T08:15:46.250Z,185.63
2017-11-04T08:16:46.673Z,180.00
2017-11-04T08:17:47.098Z,174.38
2017-11-04T08:18:47.530Z,174.38
2017-11-04T08:19:47.947Z,180.00
2017-11-04T08:20:48.375Z,174.38
2017-11-04T08:21:48.801Z,180.00
2017-11-04T08:22:49.223Z,191.25
2017-11-04T08:23:49.646Z,196.88
2017-11-04T08:24:50.073Z,196.88
2017-11-04T08:25:50.491Z,202.50
2017-11-04T08:26:50.918Z,202.50
2017-11-04T08:27:51.346Z,202.50
2017-11-04T08:28:51.771Z,196.88
2017-11-04T08:29:52.195Z,196.88
2017-11-04T08:30:52.621Z,196.88
2017-11-04T08:31:53.042Z,196.88
2017-11-04T08:32:53.475Z,202.50
2017-11-04T08:33:53.899Z,208.13
2017-11-04T08:34:54.357Z,213.75
2017-11-04T08:35:54.763Z,219.38
2017-11-04T08:36:55.202Z,225.00
2017-11-04T08:37:55.607Z,230.63
2017-11-04T08:38:56.066Z,219.38
2017-11-04T08:39:56.470Z,247.50
2017-11-04T08:40:56.894Z,253.13
2017-11-04T08:41:57.354Z,253.13
2017-11-04T08:42:57.740Z,264.38
2017-11-04T08:43:58.169Z,253.13
2017-11-04T08:44:58.628Z,253.13
2017-11-04T08:45:59.026Z,270.00
2017-11-04T08:46:59.446Z,270.00
2017-11-04T08:47:59.854Z,270.00
2017-11-04T08:49:00.283Z,264.38
2017-11-04T08:50:00.773Z,253.13
2017-11-04T08:51:01.162Z,241.88
2017-11-04T08:52:01.603Z,236.25
2017-11-04T08:53:02.023Z,247.50
2017-11-04T08:54:02.485Z,253.13
2017-11-04T08:55:02.868Z,253.13
2017-11-04T08:56:03.294Z,253.13
2017-11-04T08:57:03.721Z,253.13
2017-11-04T08:58:04.126Z,264.38
2017-11-04T08:59:04.563Z,281.25
2017-11-04T09:00:04.981Z,270.00
2017-11-04T09:01:05.426Z,286.88
2017-11-04T09:02:05.832Z,292.50
2017-11-04T09:03:06.272Z,292.50
2017-11-04T09:04:06.709Z,298.13
2017-11-04T09:05:07.178Z,292.50
2017-11-04T09:06:07.554Z,286.88
2017-11-04T09:07:07.994Z,286.88
2017-11-04T09:08:08.396Z,281.25
2017-11-04T09:09:08.829Z,292.50
2017-11-04T09:10:09.258Z,303.75
2017-11-04T09:11:09.691Z,303.75
2017-11-04T09:12:10.134Z,286.88
2017-11-04T09:13:10.554Z,264.38
2017-11-04T09:14:11.007Z,264.38
2017-11-04T09:15:11.430Z,258.75
2017-11-04T09:16:11.835Z,253.13
2017-11-04T09:17:12.302Z,230.63
2017-11-04T09:18:12.715Z,258.75
2017-11-04T09:19:13.123Z,270.00
2017-11-04T09:20:13.672Z,264.38
2017-11-04T09:21:13.996Z,264.38
2017-11-04T09:22:14.431Z,258.75
2017-11-04T09:23:14.904Z,264.38
2017-11-04T09:24:15.311Z,258.75
2017-11-04T09:25:15.719Z,258.75
2017-11-04T09:26:16.161Z,253.13
2017-11-04T09:27:16.593Z,264.38
2017-11-04T09:28:17.046Z,236.25
2017-11-04T09:29:17.452Z,225.00
2017-11-04T09:30:17.905Z,208.13
2017-11-04T09:31:18.296Z,208.13
2017-11-04T09:32:18.727Z,208.13
2017-11-04T09:33:19.173Z,202.50
2017-11-04T09:34:19.591Z,213.75
2017-11-04T09:35:20.043Z,208.13
2017-11-04T09:36:20.461Z,208.13
2017-11-04T09:37:20.874Z,230.63
2017-11-04T09:38:22.017Z,247.50
2017-11-04T09:39:21.727Z,247.50
2017-11-04T09:40:22.166Z,258.75
2017-11-04T09:41:22.604Z,275.63
2017-11-04T09:42:23.025Z,286.88
2017-11-04T09:43:23.456Z,309.38
2017-11-04T09:44:23.889Z,315.00
2017-11-04T09:45:24.318Z,298.13
2017-11-04T09:46:24.745Z,320.63
2017-11-04T09:47:25.179Z,303.75
2017-11-04T09:48:25.609Z,298.13
2017-11-04T09:49:26.041Z,315.00
2017-11-04T09:50:26.469Z,326.25
2017-11-04T09:51:26.913Z,320.63
2017-11-04T09:52:27.339Z,337.50
2017-11-04T09:53:27.764Z,337.50
2017-11-04T09:54:28.206Z,360.00
2017-11-04T09:55:28.634Z,315.00
2017-11-04T09:56:29.062Z,315.00
2017-11-04T09:57:29.491Z,331.88
2017-11-04T09:58:29.926Z,337.50
2017-11-04T09:59:30.358Z,354.38
2017-11-04T10:00:30.803Z,365.63
2017-11-04T10:01:31.225Z,309.38
2017-11-04T10:02:31.664Z,286.88
2017-11-04T10:03:32.089Z,270.00
2017-11-04T10:04:32.538Z,253.13
2017-11-04T10:05:32.955Z,241.88
2017-11-04T10:06:33.392Z,236.25
2017-11-04T10:07:33.822Z,230.63
2017-11-04T10:08:34.254Z,230.63
2017-11-04T10:09:34.686Z,230.63
2017-11-04T10:10:35.122Z,230.63
2017-11-04T10:11:35.551Z,247.50
2017-11-04T10:12:35.985Z,253.13
2017-11-04T10:13:36.422Z,270.00
2017-11-04T10:14:36.849Z,270.00
2017-11-04T10:15:37.280Z,264.38
2017-11-04T10:16:37.710Z,264.38
2017-11-04T10:17:38.142Z,270.00
2017-11-04T10:18:38.576Z,270.00
2017-11-04T10:19:39.009Z,286.88
2017-11-04T10:20:39.441Z,286.88
2017-11-04T10:21:39.868Z,286.88
2017-11-04T10:22:40.300Z,292.50
2017-11-04T10:23:40.734Z,270.00
2017-11-04T10:24:41.170Z,281.25
2017-11-04T10:25:41.592Z,270.00
2017-11-04T10:26:42.057Z,264.38
2017-11-04T10:27:42.475Z,275.63
2017-11-04T10:28:42.891Z,286.88
2017-11-04T10:29:43.325Z,298.13
2017-11-04T10:30:43.759Z,281.25
2017-11-04T10:31:44.188Z,270.00
2017-11-04T10:32:44.622Z,270.00
2017-11-04T10:33:45.056Z,286.88
2017-11-04T10:34:45.485Z,298.13
2017-11-04T10:35:45.919Z,292.50
2017-11-04T10:36:46.349Z,292.50
2017-11-04T10:37:46.776Z,298.13
2017-11-04T10:38:47.213Z,303.75
2017-11-04T10:39:47.645Z,315.00
2017-11-04T10:40:48.087Z,309.38
2017-11-04T10:41:48.504Z,286.88
2017-11-04T10:42:48.939Z,264.38
2017-11-04T10:43:49.375Z,264.38
2017-11-04T10:44:49.803Z,253.13
2017-11-04T10:45:50.240Z,247.50
2017-11-04T10:46:50.666Z,247.50
2017-11-04T10:47:51.102Z,247.50
2017-11-04T10:48:51.531Z,241.88
2017-11-04T10:49:51.966Z,230.63
2017-11-04T10:50:52.398Z,236.25
2017-11-04T10:51:52.831Z,241.88
2017-11-04T10:52:53.259Z,247.50
2017-11-04T10:53:53.690Z,247.50
2017-11-04T10:54:54.122Z,258.75
2017-11-04T10:55:54.554Z,275.63
2017-11-04T10:56:54.984Z,298.13
2017-11-04T10:57:55.416Z,303.75
2017-11-04T10:58:55.845Z,303.75
2017-11-04T10:59:56.280Z,315.00
2017-11-04T11:00:56.707Z,320.63
2017-11-04T11:01:57.140Z,337.50
2017-11-04T11:02:57.572Z,343.13
2017-11-04T11:03:58.002Z,331.88
2017-11-04T11:04:58.441Z,337.50
2017-11-04T11:05:58.870Z,326.25
2017-11-04T11:06:59.296Z,354.38
2017-11-04T11:07:59.733Z,416.25
2017-11-04T11:09:00.169Z,506.25
2017-11-04T11:10:00.594Z,540.00
2017-11-04T11:11:01.028Z,545.63
2017-11-04T11:12:01.460Z,556.88
2017-11-04T11:13:01.891Z,624.38
2017-11-04T11:14:02.332Z,630.00
2017-11-04T11:15:02.759Z,618.75
2017-11-04T11:16:03.202Z,686.25
2017-11-04T11:17:03.625Z,793.13
2017-11-04T11:18:04.079Z,759.38
2017-11-04T11:19:04.496Z,703.13
2017-11-04T11:20:04.939Z,697.50
2017-11-04T11:21:05.363Z,613.13
2017-11-04T11:22:05.806Z,579.38
2017-11-04T11:23:06.229Z,540.00
2017-11-04T11:24:06.672Z,528.75
2017-11-04T11:25:07.098Z,506.25
2017-11-04T11:26:07.532Z,472.50
2017-11-04T11:27:07.971Z,427.50
2017-11-04T11:28:08.402Z,433.13
2017-11-04T11:29:08.854Z,337.50
2017-11-04T11:30:09.272Z,270.00
2017-11-04T11:31:09.703Z,286.88
2017-11-04T11:32:10.144Z,298.13
2017-11-04T11:33:10.574Z,241.88
2017-11-04T11:34:11.010Z,236.25
2017-11-04T11:35:11.444Z,230.63
2017-11-04T11:36:11.874Z,236.25
2017-11-04T11:37:12.313Z,236.25
2017-11-04T11:38:12.739Z,230.63
2017-11-04T11:39:13.169Z,225.00
2017-11-04T11:40:13.604Z,213.75
2017-11-04T11:41:14.045Z,213.75
2017-11-04T11:42:14.467Z,219.38
2017-11-04T11:43:14.899Z,219.38
2017-11-04T11:44:15.328Z,219.38
2017-11-04T11:45:15.765Z,219.38
2017-11-04T11:46:16.196Z,213.75
2017-11-04T11:47:16.623Z,208.13
2017-11-04T11:48:17.056Z,208.13
2017-11-04T11:49:17.486Z,208.13
2017-11-04T11:50:17.919Z,208.13
2017-11-04T11:51:18.351Z,208.13
2017-11-04T11:52:18.776Z,208.13
2017-11-04T11:53:19.212Z,208.13
2017-11-04T11:54:19.634Z,202.50
2017-11-04T11:55:20.071Z,202.50
2017-11-04T11:56:20.501Z,202.50
2017-11-04T11:57:20.939Z,202.50
2017-11-04T11:58:21.364Z,202.50
2017-11-04T11:59:21.796Z,208.13
2017-11-04T12:00:22.232Z,208.13
2017-11-04T12:01:22.648Z,208.13
2017-11-04T12:02:23.076Z,213.75
2017-11-04T12:03:23.511Z,213.75
2017-11-04T12:04:23.935Z,208.13
2017-11-04T12:05:24.366Z,208.13
2017-11-04T12:06:24.798Z,213.75
2017-11-04T12:07:25.227Z,202.50
2017-11-04T12:08:25.656Z,202.50
2017-11-04T12:09:26.087Z,202.50
2017-11-04T12:10:26.514Z,196.88
2017-11-04T12:11:26.947Z,196.88
2017-11-04T12:12:27.376Z,196.88
2017-11-04T12:13:27.817Z,196.88
2017-11-04T12:14:28.230Z,196.88
2017-11-04T12:15:28.667Z,191.25
2017-11-04T12:16:29.095Z,196.88
2017-11-04T12:17:29.523Z,191.25
2017-11-04T12:18:29.950Z,191.25
2017-11-04T12:19:30.383Z,191.25
2017-11-04T12:20:30.810Z,191.25
2017-11-04T12:21:31.245Z,191.25
2017-11-04T12:22:31.668Z,191.25
2017-11-04T12:23:32.096Z,196.88
2017-11-04T12:24:32.527Z,196.88
2017-11-04T12:25:32.963Z,202.50
2017-11-04T12:26:33.384Z,202.50
2017-11-04T12:27:33.819Z,196.88
2017-11-04T12:28:34.243Z,191.25
2017-11-04T12:29:34.675Z,185.63
2017-11-04T12:30:35.104Z,180.00
2017-11-04T12:31:35.533Z,185.63
2017-11-04T12:32:35.960Z,185.63
2017-11-04T12:33:36.393Z,185.63
2017-11-04T12:34:36.819Z,185.63
2017-11-04T12:35:37.265Z,185.63
2017-11-04T12:36:37.676Z,180.00
2017-11-04T12:37:38.113Z,180.00
2017-11-04T12:38:38.538Z,174.38
2017-11-04T12:39:38.966Z,174.38
2017-11-04T12:40:39.395Z,168.75
2017-11-04T12:41:39.824Z,157.50
2017-11-04T12:42:40.252Z,151.88
2017-11-04T12:43:40.684Z,151.88
2017-11-04T12:44:41.113Z,151.88
2017-11-04T12:45:41.543Z,157.50
2017-11-04T12:46:41.970Z,157.50
2017-11-04T12:47:42.405Z,151.88
2017-11-04T12:48:42.833Z,151.88
2017-11-04T12:49:43.257Z,146.25
2017-11-04T12:50:43.684Z,146.25
2017-11-04T12:51:44.120Z,146.25
2017-11-04T12:52:44.546Z,146.25
2017-11-04T12:53:44.974Z,146.25
2017-11-04T12:54:45.403Z,146.25
2017-11-04T12:55:45.838Z,146.25
2017-11-04T12:56:46.265Z,146.25
2017-11-04T12:57:46.693Z,146.25
2017-11-04T12:58:47.121Z,140.63
2017-11-04T12:59:47.551Z,140.63